createdAt,value
2022-11-19T06:05:16.495Z,11.02
2022-11-19T06:08:20.120Z,10.88
2022-11-19T06:10:47.674Z,10.73
2022-11-19T06:13:14.831Z,12.20
2022-11-19T06:15:41.381Z,10.52
2022-11-19T06:18:08.558Z,11.05
2022-11-19T06:20:35.089Z,10.57
2022-11-19T06:23:02.225Z,10.68
2022-11-19T06:25:29.543Z,11.07
2022-11-19T06:27:56.694Z,12.18
2022-11-19T06:30:23.224Z,11.15
2022-11-19T06:32:50.365Z,10.45
2022-11-19T06:35:17.109Z,10.07
2022-11-19T06:37:44.385Z,11.85
2022-11-19T06:40:11.681Z,11.10
2022-11-19T06:42:38.947Z,10.43
2022-11-19T06:45:14.782Z,10.10
2022-11-19T06:47:42.731Z,10.55
2022-11-19T06:50:10.568Z,10.98
2022-11-19T06:52:38.215Z,11.50
2022-11-19T06:55:05.174Z,12.05
2022-11-19T06:57:32.517Z,11.38
2022-11-19T06:59:59.066Z,11.55
2022-11-19T07:02:29.040Z,11.88
2022-11-19T07:04:55.717Z,11.50
2022-11-19T07:07:22.942Z,13.25
2022-11-19T07:09:49.515Z,12.80
2022-11-19T07:12:16.681Z,11.50
2022-11-19T07:14:43.290Z,11.73
2022-11-19T07:17:10.166Z,11.52
2022-11-19T07:19:36.731Z,12.88
2022-11-19T07:22:03.940Z,12.82
2022-11-19T07:24:30.469Z,11.35
2022-11-19T07:26:57.699Z,11.93
2022-11-19T07:29:24.409Z,11.77
2022-11-19T07:31:53.492Z,12.65
2022-11-19T07:34:20.690Z,12.77
2022-11-19T07:36:48.685Z,13.68
2022-11-19T07:39:15.560Z,11.20
2022-11-19T07:42:01.365Z,10.80
2022-11-19T07:44:27.922Z,10.85
2022-11-19T07:46:55.075Z,12.38
2022-11-19T07:49:22.192Z,12.23
2022-11-19T07:51:49.358Z,12.18
2022-11-19T07:54:16.307Z,15.55
2022-11-19T07:56:43.872Z,13.02
2022-11-19T07:59:11.125Z,13.10
2022-11-19T08:01:38.855Z,12.68
2022-11-19T08:04:05.784Z,13.75
2022-11-19T08:06:34.873Z,13.57
2022-11-19T08:09:03.810Z,13.97
2022-11-19T08:11:31.399Z,14.95
2022-11-19T08:14:01.796Z,13.30
2022-11-19T08:16:48.148Z,13.75
2022-11-19T08:19:16.141Z,13.45
2022-11-19T08:21:46.035Z,15.02
2022-11-19T08:24:13.791Z,14.25
2022-11-19T08:26:41.397Z,14.27
2022-11-19T08:29:13.029Z,12.70
2022-11-19T08:31:45.222Z,14.73
2022-11-19T08:34:12.279Z,15.20
2022-11-19T08:36:39.967Z,15.10
2022-11-19T08:39:06.981Z,15.32
2022-11-19T08:41:53.002Z,14.10
2022-11-19T08:44:20.083Z,14.13
2022-11-19T08:46:47.729Z,15.18
2022-11-19T08:49:14.463Z,12.43
2022-11-19T08:51:41.809Z,13.48
2022-11-19T08:54:08.742Z,13.27
2022-11-19T08:56:35.991Z,11.57
2022-11-19T08:59:03.486Z,11.80
2022-11-19T09:01:31.143Z,12.77
2022-11-19T09:03:57.898Z,11.35
2022-11-19T09:06:25.292Z,11.55
2022-11-19T09:08:52.025Z,12.10
2022-11-19T09:11:21.263Z,11.68
2022-11-19T09:13:48.825Z,15.35
2022-11-19T09:16:15.775Z,15.75
2022-11-19T09:18:43.259Z,13.15
2022-11-19T09:21:11.176Z,13.50
2022-11-19T09:23:39.430Z,12.50
2022-11-19T09:26:08.991Z,13.52
2022-11-19T09:28:36.538Z,11.00
2022-11-19T09:31:11.780Z,11.77
2022-11-19T09:33:44.766Z,12.40
2022-11-19T09:36:12.670Z,11.45
2022-11-19T09:38:41.184Z,10.48
2022-11-19T09:41:29.737Z,9.93
2022-11-19T09:44:49.990Z,10.32
2022-11-19T09:47:27.330Z,9.68
2022-11-19T09:50:18.254Z,10.57
2022-11-19T09:52:56.450Z,9.48
2022-11-19T09:55:31.710Z,9.38
2022-11-19T09:58:00.394Z,9.52
2022-11-19T10:00:30.002Z,8.48
2022-11-19T10:02:59.305Z,9.27
2022-11-19T10:05:35.247Z,8.07
2022-11-19T10:08:23.046Z,8.65
2022-11-19T10:10:55.183Z,8.57
2022-11-19T10:13:49.665Z,7.85
2022-11-19T10:16:28.682Z,7.00
2022-11-19T10:19:16.785Z,8.63
2022-11-19T10:21:59.105Z,6.88
2022-11-19T10:24:45.284Z,7.18
2022-11-19T10:27:30.812Z,7.90
2022-11-19T10:30:02.994Z,7.15
2022-11-19T10:32:37.505Z,7.47
2022-11-19T10:35:15.293Z,6.82
2022-11-19T10:37:53.754Z,7.70
2022-11-19T10:40:24.157Z,7.82
2022-11-19T10:43:01.868Z,6.40
2022-11-19T10:45:29.997Z,7.57
2022-11-19T10:48:09.385Z,6.60
2022-11-19T10:50:36.518Z,6.63
2022-11-19T10:53:26.983Z,7.10
2022-11-19T10:56:00.524Z,6.35
2022-11-19T10:58:37.225Z,6.63
2022-11-19T11:01:14.203Z,7.57
2022-11-19T11:03:49.351Z,6.95
2022-11-19T11:06:15.946Z,6.95
2022-11-19T11:08:51.966Z,6.38
2022-11-19T11:11:50.177Z,7.28
2022-11-19T11:14:38.941Z,7.43
2022-11-19T11:17:25.899Z,6.50
2022-11-19T11:20:03.753Z,6.63
2022-11-19T11:22:31.330Z,6.90
2022-11-19T11:25:04.258Z,6.88
2022-11-19T11:27:35.864Z,6.43
2022-11-19T11:30:05.984Z,6.65
2022-11-19T11:32:33.379Z,6.47
2022-11-19T11:35:05.113Z,6.03
2022-11-19T11:37:34.191Z,6.60
2022-11-19T11:40:01.222Z,6.07
2022-11-19T11:42:29.775Z,6.10
2022-11-19T11:44:59.838Z,5.57
2022-11-19T11:47:29.122Z,6.75
2022-11-19T18:41:39.743Z,7.03
2022-11-19T18:44:26.326Z,7.10
2022-11-19T18:46:52.893Z,6.15
2022-11-19T18:49:19.889Z,6.88
2022-11-19T18:51:47.850Z,7.50
2022-11-19T18:54:14.938Z,6.10
2022-11-19T18:56:41.625Z,6.75
2022-11-19T19:01:24.271Z,6.78
2022-11-19T19:03:52.272Z,6.57
2022-11-19T19:06:19.614Z,7.07
2022-11-19T19:08:46.601Z,7.53
2022-11-19T19:11:32.234Z,7.20
2022-11-19T19:13:59.012Z,6.35
2022-11-19T19:16:26.324Z,6.78
2022-11-19T19:18:52.900Z,6.20
2022-11-19T19:21:22.011Z,6.65
2022-11-19T19:23:49.184Z,7.22
2022-11-19T19:26:17.841Z,7.38
2022-11-19T19:28:50.370Z,6.43
2022-11-19T19:31:18.315Z,7.07
2022-11-19T19:33:48.345Z,7.05
2022-11-19T19:36:16.520Z,7.28
2022-11-19T19:38:43.356Z,7.47
2022-11-19T19:41:16.727Z,7.75
2022-11-19T19:43:43.980Z,8.00
2022-11-19T19:46:16.561Z,7.43
2022-11-19T19:48:48.286Z,7.05
2022-11-19T19:51:16.798Z,6.95
2022-11-19T19:53:43.690Z,7.07
2022-11-19T19:56:12.331Z,7.43
2022-11-19T19:58:39.269Z,7.40
2022-11-19T20:01:08.346Z,8.38
2022-11-19T20:03:36.272Z,7.10
2022-11-19T20:06:05.712Z,7.30
2022-11-19T20:08:33.954Z,6.78
2022-11-19T20:11:03.387Z,7.07
2022-11-19T20:13:32.017Z,6.43
2022-11-19T20:16:17.564Z,6.68
2022-11-19T20:18:46.571Z,6.70
2022-11-19T20:21:16.556Z,6.47
2022-11-19T20:23:43.558Z,6.03
2022-11-19T20:26:13.066Z,6.50
2022-11-19T20:28:40.219Z,6.53
2022-11-19T20:31:10.746Z,6.53
2022-11-19T20:33:38.534Z,6.50
2022-11-19T20:36:07.330Z,5.50
2022-11-19T20:38:38.793Z,6.53
2022-11-19T20:41:28.379Z,6.30
2022-11-19T20:46:41.868Z,5.88
2022-11-19T20:49:10.566Z,5.70
2022-11-19T20:51:40.844Z,5.70
2022-11-19T20:54:08.856Z,5.95
2022-11-19T20:56:37.058Z,5.85
2022-11-19T20:59:04.849Z,5.70
2022-11-19T21:01:33.108Z,5.68
2022-11-19T21:03:59.985Z,6.22
2022-11-19T21:06:27.310Z,5.70
2022-11-19T21:08:53.860Z,5.45
2022-11-19T21:11:21.055Z,5.47
2022-11-19T21:13:47.635Z,5.38
2022-11-19T21:16:23.351Z,5.72
2022-11-19T21:18:50.657Z,5.40
2022-11-19T21:21:19.604Z,5.90
2022-11-19T21:23:46.407Z,5.50
2022-11-19T21:26:19.885Z,5.55
2022-11-19T21:28:49.440Z,5.57
